createdAt,value
2023-05-21T00:02:19.908Z,20.14
2023-05-21T00:04:47.456Z,20.12
2023-05-21T00:07:15.269Z,20.12
2023-05-21T00:09:41.789Z,20.11
2023-05-21T00:12:09.194Z,20.11
2023-05-21T00:14:35.806Z,20.09
2023-05-21T00:17:02.209Z,20.08
2023-05-21T00:19:28.729Z,20.08
2023-05-21T00:21:55.961Z,20.07
2023-05-21T00:24:22.399Z,20.07
2023-05-21T00:26:48.798Z,20.06
2023-05-21T00:29:15.312Z,20.06
2023-05-21T00:31:41.758Z,20.05
2023-05-21T00:34:08.301Z,20.04
2023-05-21T00:36:34.801Z,20.04
2023-05-21T00:39:02.367Z,20.03
2023-05-21T00:41:30.162Z,20.02
2023-05-21T00:43:57.150Z,20.01
2023-05-21T00:46:24.019Z,20.01
2023-05-21T00:48:51.033Z,20.00
2023-05-21T00:51:18.576Z,20.00
2023-05-21T00:53:45.877Z,19.99
2023-05-21T00:56:12.591Z,19.98
2023-05-21T00:58:40.533Z,19.98
2023-05-21T01:01:07.200Z,19.97
2023-05-21T01:03:38.677Z,19.96
2023-05-21T01:06:06.369Z,19.96
2023-05-21T01:08:34.854Z,19.95
2023-05-21T01:11:03.258Z,19.95
2023-05-21T01:13:31.383Z,19.94
2023-05-21T01:15:59.194Z,19.94
2023-05-21T01:18:26.569Z,19.93
2023-05-21T01:20:53.698Z,19.93
2023-05-21T01:23:20.902Z,19.91
2023-05-21T01:25:47.737Z,19.90
2023-05-21T01:28:14.315Z,19.88
2023-05-21T01:30:42.740Z,19.89
2023-05-21T01:33:38.848Z,19.88
2023-05-21T01:36:15.820Z,19.87
2023-05-21T01:38:57.269Z,19.85
2023-05-21T01:41:28.627Z,19.86
2023-05-21T01:43:56.729Z,19.84
2023-05-21T01:46:27.579Z,19.84
2023-05-21T01:48:56.146Z,19.83
2023-05-21T01:51:23.941Z,19.83
2023-05-21T01:53:50.536Z,19.83
2023-05-21T01:56:16.950Z,19.81
2023-05-21T01:58:43.972Z,19.81
2023-05-21T02:01:11.783Z,19.80
2023-05-21T02:03:38.696Z,19.80
2023-05-21T02:06:05.447Z,19.80
2023-05-21T02:08:31.865Z,19.78
2023-05-21T02:10:58.310Z,19.78
2023-05-21T02:13:26.601Z,19.77
2023-05-21T02:15:54.754Z,19.77
2023-05-21T02:18:22.060Z,19.76
2023-05-21T02:20:48.531Z,19.75
2023-05-21T02:23:14.985Z,19.75
2023-05-21T02:25:41.405Z,19.74
2023-05-21T02:28:07.817Z,19.74
2023-05-21T02:30:34.478Z,19.73
2023-05-21T02:33:01.068Z,19.73
2023-05-21T02:35:27.832Z,19.73
2023-05-21T02:37:58.955Z,19.72
2023-05-21T02:40:25.469Z,19.71
2023-05-21T02:42:51.898Z,19.70
2023-05-21T02:45:18.316Z,19.70
2023-05-21T02:47:44.795Z,19.69
2023-05-21T02:50:13.973Z,19.68
2023-05-21T02:52:41.500Z,19.67
2023-05-21T02:55:08.386Z,19.67
2023-05-21T02:57:34.818Z,19.67
2023-05-21T03:00:01.251Z,19.66
2023-05-21T03:02:27.811Z,19.65
2023-05-21T03:04:54.587Z,19.64
2023-05-21T03:07:21.784Z,19.64
2023-05-21T03:09:48.188Z,19.64
2023-05-21T03:12:14.595Z,19.63
2023-05-21T03:14:43.957Z,19.63
2023-05-21T03:17:13.941Z,19.62
2023-05-21T03:19:41.807Z,19.61
2023-05-21T03:22:08.232Z,19.60
2023-05-21T03:24:35.205Z,19.60
2023-05-21T03:27:01.706Z,19.59
2023-05-21T03:29:28.837Z,19.58
2023-05-21T03:31:55.729Z,19.59
2023-05-21T03:34:22.315Z,19.57
2023-05-21T03:36:49.759Z,19.57
2023-05-21T03:39:16.448Z,19.57
2023-05-21T03:41:43.214Z,19.56
2023-05-21T03:44:09.856Z,19.55
2023-05-21T03:46:36.401Z,19.53
2023-05-21T03:49:02.872Z,19.53
2023-05-21T03:51:30.672Z,19.53
2023-05-21T03:53:58.959Z,19.52
2023-05-21T03:56:26.259Z,19.52
2023-05-21T03:58:53.018Z,19.53
2023-05-21T04:01:19.774Z,19.52
2023-05-21T04:03:46.628Z,19.51
2023-05-21T04:06:13.496Z,19.51
2023-05-21T04:08:39.991Z,19.50
2023-05-21T04:11:06.450Z,19.50
2023-05-21T04:13:32.986Z,19.49
2023-05-21T04:15:59.741Z,19.50
2023-05-21T04:18:26.729Z,19.50
2023-05-21T04:20:53.737Z,19.49
2023-05-21T04:23:20.270Z,19.49
2023-05-21T04:25:50.508Z,19.48
2023-05-21T04:28:19.967Z,19.48
2023-05-21T04:30:47.597Z,19.48
2023-05-21T04:33:17.814Z,19.48
2023-05-21T04:35:46.185Z,19.49
2023-05-21T04:38:12.598Z,19.48
2023-05-21T04:40:39.028Z,19.48
2023-05-21T04:43:05.526Z,19.48
2023-05-21T04:45:31.931Z,19.47
2023-05-21T04:48:00.715Z,19.47
2023-05-21T04:50:27.264Z,19.48
2023-05-21T04:52:54.729Z,19.48
2023-05-21T04:55:21.182Z,19.47
2023-05-21T04:57:47.626Z,19.48
2023-05-21T05:00:14.165Z,19.47
2023-05-21T05:02:40.621Z,19.48
2023-05-21T05:05:07.323Z,19.48
2023-05-21T05:07:33.754Z,19.48
2023-05-21T05:10:00.332Z,19.48
2023-05-21T05:12:26.735Z,19.48
2023-05-21T05:14:53.168Z,19.47
2023-05-21T05:17:19.856Z,19.48
2023-05-21T05:19:46.232Z,19.48
2023-05-21T05:22:13.617Z,19.48
2023-05-21T05:24:40.165Z,19.48
2023-05-21T05:27:06.576Z,19.49
2023-05-21T05:29:32.994Z,19.49
2023-05-21T05:31:59.434Z,19.47
2023-05-21T05:34:25.874Z,19.48
2023-05-21T05:36:52.267Z,19.49
2023-05-21T05:39:18.657Z,19.49
2023-05-21T05:41:45.058Z,19.49
2023-05-21T05:44:11.425Z,19.49
2023-05-21T05:46:37.959Z,19.50
2023-05-21T05:49:04.563Z,19.50
2023-05-21T05:51:31.614Z,19.49
2023-05-21T05:53:58.161Z,19.51
2023-05-21T05:56:24.510Z,19.51
2023-05-21T05:58:51.021Z,19.50
2023-05-21T06:01:17.649Z,19.51
2023-05-21T06:03:44.381Z,19.51
2023-05-21T06:06:11.579Z,19.52
2023-05-21T06:08:38.376Z,19.53
2023-05-21T06:11:04.905Z,19.55
2023-05-21T06:13:32.063Z,19.56
2023-05-21T06:15:58.473Z,19.57
2023-05-21T06:18:24.910Z,19.59
2023-05-21T06:20:51.389Z,19.60
2023-05-21T06:23:17.889Z,19.62
2023-05-21T06:25:44.318Z,19.66
2023-05-21T06:28:10.777Z,19.70
2023-05-21T06:30:37.230Z,19.73
2023-05-21T06:33:03.760Z,19.75
2023-05-21T06:35:30.480Z,19.76
2023-05-21T06:37:56.868Z,19.77
2023-05-21T06:40:23.289Z,19.80
2023-05-21T06:42:49.757Z,19.80
2023-05-21T06:45:16.184Z,19.80
2023-05-21T06:47:42.605Z,19.82
2023-05-21T06:50:09.413Z,19.86
2023-05-21T06:52:35.943Z,19.85
2023-05-21T06:55:02.352Z,19.87
2023-05-21T06:57:28.798Z,19.90
2023-05-21T06:59:55.246Z,19.92
2023-05-21T07:02:21.766Z,19.93
2023-05-21T07:04:48.248Z,19.93
2023-05-21T07:07:14.659Z,19.97
2023-05-21T07:09:41.205Z,19.97
2023-05-21T07:12:07.873Z,19.98
2023-05-21T07:14:34.280Z,19.99
2023-05-21T07:17:00.896Z,19.99
2023-05-21T07:19:27.520Z,20.00
2023-05-21T07:21:54.008Z,20.02
2023-05-21T07:24:21.168Z,20.05
2023-05-21T07:26:47.756Z,20.05
2023-05-21T07:29:14.195Z,20.06
2023-05-21T07:31:40.895Z,20.09
2023-05-21T07:34:07.284Z,20.15
2023-05-21T07:36:33.766Z,20.21
2023-05-21T07:39:00.892Z,20.27
2023-05-21T07:41:27.318Z,20.31
2023-05-21T07:43:53.782Z,20.33
2023-05-21T07:46:20.529Z,20.38
2023-05-21T07:48:48.366Z,20.42
2023-05-21T07:51:15.015Z,20.46
2023-05-21T07:53:41.674Z,20.47
2023-05-21T07:56:08.203Z,20.47
2023-05-21T07:58:35.221Z,20.48
2023-05-21T08:01:01.845Z,20.48
2023-05-21T08:03:30.916Z,20.50
2023-05-21T08:05:57.605Z,20.54
2023-05-21T08:08:24.337Z,20.56
2023-05-21T08:10:51.030Z,20.56
2023-05-21T08:13:18.014Z,20.57
2023-05-21T08:15:44.565Z,20.59
2023-05-21T08:18:12.005Z,20.60
2023-05-21T08:20:38.623Z,20.60
2023-05-21T08:23:05.065Z,20.62
2023-05-21T08:25:31.746Z,20.64
2023-05-21T08:27:58.234Z,20.67
2023-05-21T08:30:24.699Z,20.69
2023-05-21T08:32:51.129Z,20.68
2023-05-21T08:35:17.568Z,20.70
2023-05-21T08:37:44.053Z,20.72
2023-05-21T08:40:12.200Z,20.74
2023-05-21T08:42:47.136Z,20.77
2023-05-21T08:45:15.135Z,20.81
2023-05-21T08:47:46.617Z,20.84
2023-05-21T08:50:20.820Z,20.87
2023-05-21T08:52:47.420Z,20.91
2023-05-21T08:55:14.087Z,20.94
2023-05-21T08:57:44.589Z,20.97
2023-05-21T09:00:11.887Z,21.04
2023-05-21T09:02:40.964Z,21.05
2023-05-21T09:05:09.763Z,21.06
2023-05-21T09:07:47.038Z,21.06
2023-05-21T09:10:14.148Z,21.06
2023-05-21T09:12:40.808Z,21.08
2023-05-21T09:15:07.898Z,21.11
2023-05-21T09:17:34.479Z,21.15
2023-05-21T09:20:14.930Z,21.17
2023-05-21T09:22:46.328Z,21.18
2023-05-21T09:25:15.476Z,21.20
2023-05-21T09:27:42.329Z,21.23
2023-05-21T09:30:14.460Z,21.26
2023-05-21T09:32:41.780Z,21.32
2023-05-21T09:35:12.914Z,21.37
2023-05-21T09:37:40.099Z,21.42
2023-05-21T09:40:16.378Z,21.41
2023-05-21T09:42:46.029Z,21.41
2023-05-21T09:45:13.211Z,21.44
2023-05-21T09:47:44.333Z,21.45
2023-05-21T09:50:12.182Z,21.50
2023-05-21T09:52:41.922Z,21.53
2023-05-21T09:55:12.819Z,21.56
2023-05-21T09:57:48.055Z,21.60
2023-05-21T10:00:21.761Z,21.64
2023-05-21T10:02:49.706Z,21.65
2023-05-21T10:05:17.484Z,21.67
2023-05-21T10:07:56.151Z,21.70
2023-05-21T10:10:23.348Z,21.69
2023-05-21T10:12:58.738Z,21.71
2023-05-21T10:15:27.804Z,21.73
2023-05-21T10:17:56.260Z,21.75
2023-05-21T10:20:23.000Z,21.78
2023-05-21T10:22:50.612Z,21.78
2023-05-21T10:25:17.450Z,21.77
2023-05-21T10:27:44.202Z,21.78
2023-05-21T10:30:11.566Z,21.84
2023-05-21T10:32:40.148Z,21.88
2023-05-21T10:35:08.868Z,21.95
2023-05-21T10:37:35.702Z,22.01
2023-05-21T10:40:02.260Z,22.07
2023-05-21T10:42:31.386Z,22.12
2023-05-21T10:45:03.893Z,22.14
2023-05-21T10:47:54.339Z,22.15
2023-05-21T10:50:46.721Z,22.15
2023-05-21T10:53:32.912Z,22.16
2023-05-21T10:56:32.151Z,22.17
2023-05-21T10:59:35.883Z,22.15
2023-05-21T11:02:03.804Z,22.17
2023-05-21T11:04:30.440Z,22.19
2023-05-21T11:06:58.824Z,22.21
2023-05-21T11:09:26.639Z,22.20
2023-05-21T11:11:58.159Z,22.18
2023-05-21T11:14:36.433Z,22.17
2023-05-21T11:17:09.771Z,22.18
2023-05-21T11:19:41.358Z,22.17
2023-05-21T11:22:29.006Z,22.20
2023-05-21T11:24:56.416Z,22.26
2023-05-21T11:27:40.948Z,22.33
2023-05-21T11:30:18.101Z,22.40
2023-05-21T11:33:13.892Z,22.49
2023-05-21T11:35:46.503Z,22.57
2023-05-21T11:38:12.935Z,22.62
2023-05-21T11:40:50.516Z,22.70
2023-05-21T11:43:18.507Z,22.79
2023-05-21T11:45:47.163Z,22.98
2023-05-21T11:48:14.207Z,23.34
2023-05-21T11:50:42.385Z,23.90
2023-05-21T11:53:09.152Z,24.66
2023-05-21T11:55:43.526Z,25.79
2023-05-21T11:58:16.694Z,26.64
2023-05-21T12:00:43.160Z,26.60
2023-05-21T12:03:14.188Z,26.68
2023-05-21T12:05:48.206Z,27.11
2023-05-21T12:08:25.244Z,27.58
2023-05-21T12:10:58.467Z,27.85
2023-05-21T12:13:26.025Z,28.14
2023-05-21T12:15:54.353Z,28.19
2023-05-21T12:18:21.573Z,27.74
2023-05-21T12:20:48.208Z,26.66
2023-05-21T12:23:23.978Z,25.92
2023-05-21T12:25:51.618Z,25.52
2023-05-21T12:28:18.198Z,25.26
2023-05-21T12:30:44.744Z,25.09
2023-05-21T12:33:12.167Z,24.94
2023-05-21T12:35:38.686Z,24.82
2023-05-21T12:38:06.940Z,24.68
2023-05-21T12:40:38.277Z,24.63
2023-05-21T12:43:06.016Z,24.60
2023-05-21T12:45:33.259Z,24.55
2023-05-21T12:48:03.281Z,24.54
2023-05-21T12:50:29.967Z,24.56
2023-05-21T12:52:58.363Z,24.56
2023-05-21T12:55:28.562Z,24.53
2023-05-21T12:58:06.080Z,24.42
2023-05-21T13:00:33.127Z,24.36
2023-05-21T13:03:01.022Z,24.33
2023-05-21T13:05:27.583Z,24.29
2023-05-21T13:07:54.069Z,24.27
2023-05-21T13:10:20.828Z,24.27
2023-05-21T13:12:47.194Z,24.30
2023-05-21T13:15:14.530Z,24.31
2023-05-21T13:17:41.102Z,24.31
2023-05-21T13:20:18.218Z,24.31
2023-05-21T13:22:46.936Z,24.32
2023-05-21T13:25:21.542Z,24.30
2023-05-21T13:27:49.476Z,24.23
2023-05-21T13:30:16.024Z,24.23
2023-05-21T13:32:43.414Z,24.26
2023-05-21T13:35:11.289Z,24.26
2023-05-21T13:37:39.499Z,24.26
2023-05-21T13:40:07.898Z,24.25
2023-05-21T13:42:35.388Z,24.24
2023-05-21T13:45:02.084Z,24.24
2023-05-21T13:47:28.606Z,24.25
2023-05-21T13:49:55.280Z,24.25
2023-05-21T13:52:21.833Z,24.24
2023-05-21T13:54:48.269Z,24.25
2023-05-21T13:57:15.128Z,24.27
2023-05-21T13:59:41.770Z,24.28
2023-05-21T14:02:09.357Z,24.26
2023-05-21T14:04:38.957Z,24.26
2023-05-21T14:07:06.439Z,24.24
2023-05-21T14:09:33.064Z,24.24
2023-05-21T14:11:59.567Z,24.23
2023-05-21T14:14:25.997Z,24.29
2023-05-21T14:16:52.869Z,24.32
2023-05-21T14:19:19.567Z,24.35
2023-05-21T14:21:46.039Z,24.37
2023-05-21T14:24:12.488Z,24.37
2023-05-21T14:26:41.214Z,24.42
2023-05-21T14:29:07.804Z,24.56
2023-05-21T14:31:34.281Z,24.83
2023-05-21T14:34:02.751Z,25.23
2023-05-21T14:36:29.719Z,25.66
2023-05-21T14:38:56.235Z,25.88
2023-05-21T14:41:27.125Z,25.79
2023-05-21T14:43:54.089Z,25.55
2023-05-21T14:46:20.675Z,25.24
2023-05-21T14:48:47.223Z,25.05
2023-05-21T14:51:14.304Z,24.89
2023-05-21T14:53:41.014Z,24.76
2023-05-21T14:56:07.974Z,24.65
2023-05-21T14:58:34.449Z,24.58
2023-05-21T15:01:01.016Z,24.49
2023-05-21T15:03:27.715Z,24.41
2023-05-21T15:05:54.227Z,24.40
2023-05-21T15:08:20.659Z,24.41
2023-05-21T15:10:47.110Z,24.37
2023-05-21T15:13:13.536Z,24.34
2023-05-21T15:15:40.220Z,24.31
2023-05-21T15:18:06.979Z,24.29
2023-05-21T15:20:33.533Z,24.24
2023-05-21T15:23:12.714Z,24.21
2023-05-21T15:25:42.941Z,24.23
2023-05-21T15:28:09.383Z,24.21
2023-05-21T15:30:35.795Z,24.21
2023-05-21T15:33:02.213Z,24.20
2023-05-21T15:35:28.756Z,24.19
2023-05-21T15:37:55.354Z,24.19
2023-05-21T15:40:21.882Z,24.18
2023-05-21T15:42:48.271Z,24.19
2023-05-21T15:45:14.677Z,24.20
2023-05-21T15:47:42.683Z,24.20
2023-05-21T15:50:10.337Z,24.19
2023-05-21T15:52:37.023Z,24.17
2023-05-21T15:55:03.509Z,24.15
2023-05-21T15:57:30.232Z,24.13
2023-05-21T15:59:56.682Z,24.11
2023-05-21T16:02:23.271Z,24.10
2023-05-21T16:04:51.745Z,24.06
2023-05-21T16:07:18.749Z,24.04
2023-05-21T16:09:47.627Z,24.03
2023-05-21T16:12:14.052Z,24.04
2023-05-21T16:14:40.565Z,24.03
2023-05-21T16:17:07.179Z,24.00
2023-05-21T16:19:33.631Z,23.97
2023-05-21T16:22:01.539Z,23.94
2023-05-21T16:24:27.956Z,23.90
2023-05-21T16:26:54.450Z,23.87
2023-05-21T16:29:22.069Z,23.84
2023-05-21T16:31:48.826Z,23.81
2023-05-21T16:34:15.747Z,23.79
2023-05-21T16:36:42.598Z,23.77
2023-05-21T16:39:09.110Z,23.74
2023-05-21T16:41:35.534Z,23.68
2023-05-21T16:44:01.980Z,23.63
2023-05-21T16:46:28.492Z,23.58
2023-05-21T16:48:54.906Z,23.56
2023-05-21T16:51:21.316Z,23.51
2023-05-21T16:53:47.697Z,23.50
2023-05-21T16:56:14.101Z,23.48
2023-05-21T16:58:40.688Z,23.46
2023-05-21T17:01:07.182Z,23.42
2023-05-21T17:03:33.828Z,23.41
2023-05-21T17:06:00.572Z,23.40
2023-05-21T17:08:26.979Z,23.36
2023-05-21T17:10:53.460Z,23.33
2023-05-21T17:13:22.516Z,23.31
2023-05-21T17:15:50.891Z,23.30
2023-05-21T17:18:17.494Z,23.27
2023-05-21T17:20:43.936Z,23.25
2023-05-21T17:23:11.673Z,23.22
2023-05-21T17:25:38.490Z,23.20
2023-05-21T17:28:05.363Z,23.17
2023-05-21T17:30:31.791Z,23.16
2023-05-21T17:32:58.386Z,23.14
2023-05-21T17:35:25.020Z,23.11
2023-05-21T17:37:53.286Z,23.09
2023-05-21T17:40:21.326Z,23.07
2023-05-21T17:42:47.995Z,23.05
2023-05-21T17:45:14.442Z,23.02
2023-05-21T17:47:40.941Z,22.98
2023-05-21T17:50:08.288Z,22.96
2023-05-21T17:52:34.779Z,22.95
2023-05-21T17:55:01.872Z,22.94
2023-05-21T17:57:28.595Z,22.93
2023-05-21T17:59:55.539Z,22.92
2023-05-21T18:02:23.471Z,22.90
2023-05-21T18:04:50.054Z,22.85
2023-05-21T18:07:16.585Z,22.81
2023-05-21T18:09:43.074Z,22.79
2023-05-21T18:12:10.910Z,22.75
2023-05-21T18:14:37.321Z,22.72
2023-05-21T18:17:03.951Z,22.71
2023-05-21T18:19:31.281Z,22.69
2023-05-21T18:21:57.813Z,22.66
2023-05-21T18:24:24.312Z,22.63
2023-05-21T18:26:50.798Z,22.61
2023-05-21T18:29:17.202Z,22.59
2023-05-21T18:31:45.198Z,22.58
2023-05-21T18:34:11.762Z,22.57
2023-05-21T18:36:40.800Z,22.56
2023-05-21T18:39:10.420Z,22.55
2023-05-21T18:41:37.396Z,22.53
2023-05-21T18:44:05.945Z,22.52
2023-05-21T18:46:32.479Z,22.50
2023-05-21T18:49:00.023Z,22.48
2023-05-21T18:51:26.506Z,22.47
2023-05-21T18:53:53.201Z,22.45
2023-05-21T18:56:19.694Z,22.44
2023-05-21T18:58:46.287Z,22.42
2023-05-21T19:01:12.871Z,22.40
2023-05-21T19:03:39.343Z,22.38
2023-05-21T19:06:05.875Z,22.37
2023-05-21T19:08:32.316Z,22.35
2023-05-21T19:10:58.801Z,22.32
2023-05-21T19:13:26.212Z,22.31
2023-05-21T19:15:52.783Z,22.25
2023-05-21T19:18:19.294Z,22.19
2023-05-21T19:20:45.921Z,22.16
2023-05-21T19:23:12.507Z,22.16
2023-05-21T19:25:39.142Z,22.15
2023-05-21T19:28:05.691Z,22.16
2023-05-21T19:30:34.889Z,22.15
2023-05-21T19:33:01.861Z,22.13
2023-05-21T19:35:28.584Z,22.12
2023-05-21T19:37:58.986Z,22.11
2023-05-21T19:40:26.090Z,22.09
2023-05-21T19:42:52.638Z,22.09
2023-05-21T19:45:21.295Z,22.07
2023-05-21T19:47:48.009Z,22.06
2023-05-21T19:50:14.466Z,22.02
2023-05-21T19:52:40.984Z,21.99
2023-05-21T19:55:10.090Z,21.99
2023-05-21T19:57:37.005Z,21.99
2023-05-21T20:00:04.808Z,21.97
2023-05-21T20:02:31.432Z,21.94
2023-05-21T20:04:58.944Z,21.92
2023-05-21T20:07:25.511Z,21.93
2023-05-21T20:09:52.390Z,21.93
2023-05-21T20:12:18.940Z,21.92
2023-05-21T20:14:46.897Z,21.91
2023-05-21T20:17:14.562Z,21.89
2023-05-21T20:19:41.260Z,21.88
2023-05-21T20:22:07.787Z,21.87
2023-05-21T20:24:34.266Z,21.87
2023-05-21T20:27:01.532Z,21.84
2023-05-21T20:29:28.841Z,21.83
2023-05-21T20:31:55.444Z,21.81
2023-05-21T20:34:21.900Z,21.79
2023-05-21T20:36:48.491Z,21.79
2023-05-21T20:39:15.388Z,21.77
2023-05-21T20:41:44.753Z,21.76
2023-05-21T20:44:11.761Z,21.75
2023-05-21T20:46:38.554Z,21.74
2023-05-21T20:49:05.823Z,21.73
2023-05-21T20:51:32.413Z,21.72
2023-05-21T20:53:58.925Z,21.71
2023-05-21T20:56:40.060Z,21.70
2023-05-21T20:59:09.302Z,21.68
2023-05-21T21:01:37.889Z,21.67
2023-05-21T21:04:04.893Z,21.65
2023-05-21T21:06:31.700Z,21.64
2023-05-21T21:08:58.305Z,21.63
2023-05-21T21:11:24.843Z,21.62
2023-05-21T21:13:51.774Z,21.61
2023-05-21T21:16:18.349Z,21.60
2023-05-21T21:18:46.868Z,21.59
2023-05-21T21:21:13.540Z,21.57
2023-05-21T21:23:40.176Z,21.57
2023-05-21T21:26:06.681Z,21.56
2023-05-21T21:28:33.070Z,21.54
2023-05-21T21:30:59.562Z,21.54
2023-05-21T21:33:26.738Z,21.52
2023-05-21T21:35:53.293Z,21.53
2023-05-21T21:38:19.656Z,21.50
2023-05-21T21:40:46.055Z,21.51
2023-05-21T21:43:12.457Z,21.51
2023-05-21T21:45:38.921Z,21.50
2023-05-21T21:48:05.866Z,21.51
2023-05-21T21:50:32.344Z,21.48
2023-05-21T21:52:59.879Z,21.48
2023-05-21T21:55:26.457Z,21.46
2023-05-21T21:57:52.841Z,21.44
2023-05-21T22:00:19.526Z,21.44
2023-05-21T22:02:46.604Z,21.43
2023-05-21T22:05:14.937Z,21.41
2023-05-21T22:07:42.662Z,21.40
2023-05-21T22:10:09.521Z,21.40
2023-05-21T22:12:35.945Z,21.40
2023-05-21T22:15:05.157Z,21.40
2023-05-21T22:17:32.748Z,21.39
2023-05-21T22:19:59.771Z,21.38
2023-05-21T22:22:26.592Z,21.38
2023-05-21T22:24:53.784Z,21.37
2023-05-21T22:27:20.866Z,21.35
2023-05-21T22:29:47.579Z,21.34
2023-05-21T22:32:14.093Z,21.32
2023-05-21T22:34:41.839Z,21.32
2023-05-21T22:37:08.323Z,21.30
2023-05-21T22:39:34.686Z,21.28
2023-05-21T22:42:01.403Z,21.27
2023-05-21T22:44:27.900Z,21.27
2023-05-21T22:46:56.414Z,21.24
2023-05-21T22:49:23.024Z,21.23
2023-05-21T22:51:50.974Z,21.22
2023-05-21T22:54:17.577Z,21.20
2023-05-21T22:56:44.937Z,21.19
2023-05-21T22:59:11.472Z,21.17
2023-05-21T23:01:38.280Z,21.16
2023-05-21T23:04:05.025Z,21.15
2023-05-21T23:06:31.777Z,21.13
2023-05-21T23:08:58.170Z,21.12
2023-05-21T23:11:24.708Z,21.11
2023-05-21T23:13:51.218Z,21.10
2023-05-21T23:16:17.666Z,21.09
2023-05-21T23:18:44.156Z,21.07
2023-05-21T23:21:10.633Z,21.07
2023-05-21T23:23:37.086Z,21.06
2023-05-21T23:26:03.476Z,21.04
2023-05-21T23:28:29.862Z,21.04
2023-05-21T23:30:56.329Z,21.03
2023-05-21T23:33:22.804Z,21.02
2023-05-21T23:35:49.208Z,21.01
2023-05-21T23:38:15.594Z,21.00
2023-05-21T23:40:42.078Z,20.99
2023-05-21T23:43:08.512Z,20.98
2023-05-21T23:45:35.055Z,20.96
2023-05-21T23:48:01.592Z,20.95
2023-05-21T23:50:28.043Z,20.94
2023-05-21T23:52:54.574Z,20.94
2023-05-21T23:55:21.090Z,20.92
2023-05-21T23:57:47.471Z,20.92
